Time;durP1;ratioP1;P1;durP2;ratioP2;P2;SDS_P1;SDS_P2;PMS_P1;PMS_P2;Temp;Humidity;BMP_temperature;BMP_pressure;BME280_temperature;BME280_humidity;BME280_pressure;Samples;Min_cycle;Max_cycle;Signal;HPM_P1;HPM_P2
2021/07/14 00:00:33;;;;;;;11.18;9.33;;;;;;;25.51;61.73;100593.75;1703191;82;21058;-68
2021/07/14 00:03:00;;;;;;;15.23;9.58;;;;;;;25.46;61.58;100592.23;1675884;83;21680;-68
2021/07/14 00:05:26;;;;;;;11.03;8.73;;;;;;;25.40;61.83;100584.47;1709537;83;21122;-68
2021/07/14 00:07:53;;;;;;;10.53;8.95;;;;;;;25.37;62.02;100588.97;1681300;83;21126;-68
2021/07/14 00:10:27;;;;;;;12.90;9.28;;;;;;;25.38;61.97;100594.11;1709779;83;21038;-68
2021/07/14 00:13:02;;;;;;;13.25;9.58;;;;;;;25.39;62.03;100591.73;1665744;83;21125;-68
2021/07/14 00:23:15;;;;;;;11.88;8.95;;;;;;;25.31;62.69;100585.78;1739094;81;21067;-68
2021/07/14 00:25:43;;;;;;;12.82;9.15;;;;;;;25.26;62.79;100582.38;1744447;82;21633;-68
2021/07/14 00:28:09;;;;;;;12.43;9.68;;;;;;;25.20;63.08;100584.54;1735791;81;21062;-68
2021/07/14 00:30:37;;;;;;;14.73;10.48;;;;;;;25.17;63.07;100586.34;1743383;81;21810;-68
2021/07/14 00:33:04;;;;;;;16.37;10.43;;;;;;;25.17;63.05;100591.20;1738609;81;21030;-68
2021/07/14 00:35:30;;;;;;;10.30;9.03;;;;;;;25.17;63.30;100586.34;1739026;81;21053;-68
2021/07/14 00:37:59;;;;;;;13.88;9.85;;;;;;;25.16;63.48;100592.23;1687250;83;21599;-68
2021/07/14 00:40:25;;;;;;;12.23;9.73;;;;;;;25.12;63.55;100591.02;1702780;82;21113;-68
2021/07/14 00:42:53;;;;;;;14.50;10.35;;;;;;;25.07;63.57;100591.36;1710538;82;21101;-68
2021/07/14 00:45:19;;;;;;;13.48;8.48;;;;;;;25.03;63.59;100592.28;1715170;82;21070;-67
2021/07/14 00:47:49;;;;;;;15.20;9.80;;;;;;;24.98;63.53;100592.09;1664439;84;21146;-67
2021/07/14 00:50:14;;;;;;;20.88;10.65;;;;;;;24.93;64.26;100590.06;1694595;84;21174;-67
2021/07/14 00:52:41;;;;;;;10.82;8.78;;;;;;;24.96;64.75;100592.30;1692698;84;21098;-66
2021/07/14 00:55:10;;;;;;;11.73;8.70;;;;;;;24.99;64.46;100595.92;1692661;84;21072;-66
2021/07/14 00:57:36;;;;;;;12.53;9.18;;;;;;;25.01;64.42;100599.22;1690628;84;21087;-68
2021/07/14 01:00:06;;;;;;;11.55;8.95;;;;;;;25.02;64.28;100602.76;1689184;84;21107;-67
2021/07/14 01:02:33;;;;;;;14.47;9.43;;;;;;;25.01;64.14;100599.75;1699329;82;21062;-66
2021/07/14 01:05:19;;;;;;;10.43;9.00;;;;;;;24.96;63.94;100596.34;1712104;82;21023;-67
2021/07/14 01:08:14;;;;;;;11.10;8.70;;;;;;;24.92;63.61;100599.16;1687020;83;21078;-67
2021/07/14 01:10:45;;;;;;;12.43;9.78;;;;;;;24.88;63.52;100590.38;1713134;82;21058;-68
2021/07/14 01:13:37;;;;;;;11.33;9.50;;;;;;;24.80;63.45;100599.53;1708224;82;21042;-68
2021/07/14 01:16:06;;;;;;;15.32;8.98;;;;;;;24.75;63.60;100601.50;1709400;82;21006;-68
2021/07/14 01:18:59;;;;;;;12.68;10.03;;;;;;;24.75;63.47;100600.16;1709409;82;21065;-68
2021/07/14 01:21:30;;;;;;;11.53;9.43;;;;;;;24.75;63.64;100600.16;1676050;84;21067;-68
2021/07/14 01:24:23;;;;;;;10.68;8.38;;;;;;;24.73;63.56;100598.20;1669088;84;21078;-68
2021/07/14 01:27:13;;;;;;;11.18;8.28;;;;;;;24.69;63.77;100598.82;1683494;84;21127;-68
2021/07/14 01:29:52;;;;;;;11.10;8.40;;;;;;;24.64;63.77;100592.19;1704177;82;21054;-68
2021/07/14 01:32:20;;;;;;;12.05;8.70;;;;;;;24.60;63.81;100589.63;1676066;83;21086;-67
2021/07/14 01:34:51;;;;;;;11.93;7.85;;;;;;;24.56;64.05;100587.06;1690070;83;21767;-68
2021/07/14 01:37:22;;;;;;;10.23;8.45;;;;;;;24.56;64.11;100586.22;1729497;81;21103;-68
2021/07/14 01:39:50;;;;;;;9.98;8.30;;;;;;;24.59;64.15;100587.14;1721528;82;21078;-68
2021/07/14 01:42:18;;;;;;;13.38;9.10;;;;;;;24.63;63.90;100588.39;1732602;82;21637;-68
2021/07/14 01:44:44;;;;;;;11.22;9.68;;;;;;;24.66;63.77;100589.30;1685057;83;21121;-68
2021/07/14 01:47:11;;;;;;;11.63;9.15;;;;;;;24.64;63.57;100592.72;1692456;82;21492;-68
2021/07/14 01:49:38;;;;;;;10.65;9.03;;;;;;;24.61;63.60;100597.17;1679785;83;21016;-68
2021/07/14 01:52:14;;;;;;;11.43;9.10;;;;;;;24.57;63.89;100596.77;1702949;82;21050;-68
2021/07/14 01:54:41;;;;;;;13.00;9.48;;;;;;;24.54;63.90;100600.37;1732846;80;21058;-68
2021/07/14 01:57:08;;;;;;;13.83;9.95;;;;;;;24.47;63.94;100600.38;1744753;80;21125;-68
2021/07/14 01:59:39;;;;;;;13.03;9.18;;;;;;;24.44;64.06;100599.45;1733606;82;21139;-68
2021/07/14 02:02:06;;;;;;;11.73;9.48;;;;;;;24.47;64.26;100594.47;1739947;81;21081;-68
2021/07/14 02:04:34;;;;;;;12.60;10.32;;;;;;;24.50;64.21;100599.97;1686707;83;21062;-68
2021/07/14 02:07:08;;;;;;;10.90;9.13;;;;;;;24.49;64.21;100598.30;1745179;81;21066;-68
2021/07/14 02:09:38;;;;;;;10.72;9.15;;;;;;;24.48;64.37;100595.32;1721349;80;21055;-68
2021/07/14 02:12:16;;;;;;;15.50;9.33;;;;;;;24.46;64.59;100592.84;1711919;82;21138;-68
2021/07/14 02:14:59;;;;;;;18.00;10.32;;;;;;;24.45;64.53;100593.05;1679597;83;21082;-68
2021/07/14 02:17:30;;;;;;;13.83;10.38;;;;;;;24.40;64.17;100594.19;1725744;80;21106;-68
2021/07/14 02:20:05;;;;;;;11.68;9.25;;;;;;;24.37;64.67;100602.67;1730773;81;21138;-68
2021/07/14 02:22:32;;;;;;;12.98;10.03;;;;;;;24.40;64.86;100607.11;1739057;81;21522;-68
2021/07/14 02:24:58;;;;;;;10.98;9.08;;;;;;;24.42;64.69;100602.87;1746121;82;21489;-68
2021/07/14 02:27:27;;;;;;;11.08;9.58;;;;;;;24.43;64.82;100601.32;1708573;82;21077;-68
2021/07/14 02:29:53;;;;;;;11.83;9.98;;;;;;;24.45;64.88;100607.31;1706303;82;21046;-68
2021/07/14 02:32:20;;;;;;;13.13;9.88;;;;;;;24.46;64.82;100608.12;1700470;83;21063;-68
2021/07/14 02:34:49;;;;;;;11.45;9.78;;;;;;;24.45;65.04;100610.00;1716941;81;21158;-68
2021/07/14 02:37:35;;;;;;;12.60;9.75;;;;;;;24.45;65.23;100611.88;1697588;83;21086;-68
2021/07/14 02:40:01;;;;;;;11.38;9.18;;;;;;;24.46;65.31;100613.51;1712176;82;20995;-68
2021/07/14 02:42:31;;;;;;;14.35;9.33;;;;;;;24.49;65.12;100621.16;1731938;81;21110;-68
2021/07/14 02:45:01;;;;;;;11.30;9.95;;;;;;;24.51;64.98;100622.30;1674621;84;21102;-68
2021/07/14 02:47:36;;;;;;;12.78;10.18;;;;;;;24.53;65.00;100629.64;1677877;84;21098;-68
2021/07/14 02:50:16;;;;;;;12.28;9.53;;;;;;;24.53;64.99;100625.60;1693045;84;21119;-68
2021/07/14 02:52:47;;;;;;;12.25;10.03;;;;;;;24.53;65.10;100627.80;1677819;84;21074;-68
2021/07/14 02:55:17;;;;;;;13.75;10.08;;;;;;;24.51;65.46;100627.19;1691414;82;21086;-68
2021/07/14 02:57:44;;;;;;;13.80;10.00;;;;;;;24.54;65.39;100635.34;1693240;83;21670;-68
2021/07/14 03:00:11;;;;;;;13.30;9.68;;;;;;;24.56;65.39;100628.76;1686179;83;21153;-68
2021/07/14 03:02:40;;;;;;;11.83;9.68;;;;;;;24.64;65.29;100631.20;1686382;83;21713;-68
2021/07/14 03:05:09;;;;;;;12.05;9.90;;;;;;;24.69;65.09;100632.45;1694927;83;21054;-68
2021/07/14 03:07:35;;;;;;;11.55;10.35;;;;;;;24.69;65.02;100633.27;1693466;83;21657;-68
2021/07/14 03:10:03;;;;;;;11.45;9.95;;;;;;;24.71;65.11;100645.17;1691485;83;22476;-73
2021/07/14 03:12:30;;;;;;;12.13;10.68;;;;;;;24.69;65.02;100643.22;1692496;84;21569;-67
2021/07/14 03:15:01;;;;;;;11.40;9.85;;;;;;;24.64;65.01;100645.19;1672399;83;21114;-67
2021/07/14 03:17:30;;;;;;;11.65;9.73;;;;;;;24.60;64.46;100640.74;1670055;83;21084;-65
2021/07/14 03:20:00;;;;;;;11.63;9.70;;;;;;;24.64;64.77;100645.19;1728557;81;21145;-67
2021/07/14 03:22:27;;;;;;;12.00;9.88;;;;;;;24.69;64.86;100645.91;1735495;80;21552;-64
2021/07/14 03:24:55;;;;;;;14.23;11.05;;;;;;;24.71;64.54;100644.64;1731601;81;21129;-63
2021/07/14 03:27:21;;;;;;;11.78;9.93;;;;;;;24.72;64.31;100642.80;1697396;81;22258;-63
2021/07/14 03:29:50;;;;;;;12.28;10.55;;;;;;;24.72;64.36;100648.19;1722820;81;21098;-65
2021/07/14 03:32:18;;;;;;;16.52;10.72;;;;;;;24.72;64.10;100649.53;1730691;80;21091;-61
2021/07/14 03:34:45;;;;;;;12.45;10.60;;;;;;;24.71;64.26;100647.34;1718498;81;21102;-62
2021/07/14 03:37:13;;;;;;;12.93;10.53;;;;;;;24.74;64.31;100651.48;1697829;81;21133;-61
2021/07/14 03:39:41;;;;;;;11.40;9.85;;;;;;;24.79;64.34;100647.64;1720270;82;21323;-66
2021/07/14 03:42:10;;;;;;;12.60;10.18;;;;;;;24.84;64.44;100645.15;1722095;82;21692;-66
2021/07/14 03:44:38;;;;;;;11.93;10.00;;;;;;;24.89;64.51;100648.03;1729862;81;21384;-66
2021/07/14 03:47:05;;;;;;;13.30;10.38;;;;;;;24.93;64.65;100643.90;1733081;81;21044;-65
2021/07/14 03:49:32;;;;;;;12.65;10.48;;;;;;;24.94;64.95;100646.06;1731273;81;21062;-67
2021/07/14 03:51:59;;;;;;;11.48;9.43;;;;;;;24.97;65.19;100649.15;1732653;81;21129;-66
2021/07/14 03:54:28;;;;;;;12.33;10.28;;;;;;;25.03;64.90;100650.16;1732078;81;21063;-66
2021/07/14 03:59:52;;;;;;;15.38;10.20;;;;;;;25.22;64.96;100647.11;1775438;78;22699;-67
2021/07/14 04:02:18;;;;;;;12.50;10.70;;;;;;;25.19;65.17;100651.57;1742526;80;21309;-68
2021/07/14 04:04:49;;;;;;;11.55;10.05;;;;;;;25.21;65.30;100652.99;1740261;80;21126;-69
2021/07/14 04:07:16;;;;;;;12.95;9.63;;;;;;;25.24;65.29;100653.63;1741456;80;21017;-68
2021/07/14 04:09:47;;;;;;;15.38;10.65;;;;;;;25.29;65.21;100657.36;1731235;81;21553;-68
2021/07/14 04:12:16;;;;;;;13.45;10.08;;;;;;;25.33;65.19;100659.91;1745338;81;21585;-68
2021/07/14 04:14:42;;;;;;;13.70;11.10;;;;;;;25.37;65.20;100654.42;1739975;81;20990;-68
2021/07/14 04:17:10;;;;;;;13.95;11.60;;;;;;;25.39;65.32;100655.56;1737607;80;21560;-68
2021/07/14 04:19:39;;;;;;;13.85;10.80;;;;;;;25.39;65.53;100650.17;1736495;81;21659;-67
2021/07/14 04:22:07;;;;;;;12.98;10.35;;;;;;;25.40;65.75;100649.96;1753141;81;21449;-66
2021/07/14 04:24:33;;;;;;;13.20;9.68;;;;;;;25.42;65.89;100655.14;1746298;81;21074;-68
2021/07/14 04:26:59;;;;;;;14.60;9.83;;;;;;;25.47;66.00;100647.73;1737612;80;21023;-66
2021/07/14 04:29:27;;;;;;;13.28;9.03;;;;;;;25.56;65.50;100644.58;1708673;81;21235;-67
2021/07/14 04:31:53;;;;;;;12.28;9.43;;;;;;;25.65;64.85;100647.03;1704845;82;21128;-72
2021/07/14 04:34:20;;;;;;;11.48;9.43;;;;;;;25.69;64.72;100653.13;1674260;83;21097;-69
2021/07/14 04:36:46;;;;;;;12.68;9.68;;;;;;;25.73;64.66;100655.67;1680028;83;21094;-69
2021/07/14 04:39:14;;;;;;;11.57;8.88;;;;;;;25.76;64.17;100660.64;1675463;83;21125;-70
2021/07/14 04:41:41;;;;;;;13.03;9.33;;;;;;;25.74;64.00;100654.65;1680334;83;21127;-69
2021/07/14 04:44:10;;;;;;;13.10;9.23;;;;;;;25.73;63.89;100657.02;1657893;84;21187;-70
2021/07/14 04:46:36;;;;;;;10.93;7.70;;;;;;;25.72;63.49;100657.23;1681835;84;21070;-69
2021/07/14 04:49:03;;;;;;;10.60;8.50;;;;;;;25.75;63.70;100661.67;1683077;84;21078;-71
2021/07/14 04:51:29;;;;;;;10.45;9.33;;;;;;;25.84;63.52;100657.37;1674389;84;21078;-68
2021/07/14 04:53:56;;;;;;;11.28;9.13;;;;;;;25.95;63.25;100658.88;1666953;83;21246;-68
2021/07/14 04:56:23;;;;;;;11.25;9.20;;;;;;;26.04;62.62;100651.88;1681259;84;21079;-68
2021/07/14 04:58:50;;;;;;;10.65;9.10;;;;;;;26.09;62.18;100650.20;1674572;84;21079;-71
2021/07/14 05:01:17;;;;;;;10.78;9.55;;;;;;;26.13;62.12;100655.98;1646718;85;21386;-68
2021/07/14 05:03:45;;;;;;;11.53;9.78;;;;;;;26.18;61.98;100658.84;1658937;85;21139;-68
2021/07/14 05:06:13;;;;;;;12.37;9.33;;;;;;;26.22;62.20;100662.73;1647451;85;21095;-69
2021/07/14 05:08:39;;;;;;;10.68;8.73;;;;;;;26.24;62.01;100659.31;1660174;85;21051;-69
2021/07/14 05:11:06;;;;;;;11.48;9.33;;;;;;;26.29;61.63;100662.68;1667638;85;21115;-67
2021/07/14 05:13:35;;;;;;;11.28;8.70;;;;;;;26.32;61.37;100660.90;1666041;85;21025;-67
2021/07/14 05:16:01;;;;;;;11.22;8.68;;;;;;;26.35;61.16;100664.51;1670659;85;21127;-68
2021/07/14 05:18:29;;;;;;;12.68;9.05;;;;;;;26.41;61.16;100666.33;1671821;85;20912;-67
2021/07/14 05:20:56;;;;;;;11.97;9.35;;;;;;;26.51;60.93;100663.11;1661239;85;20980;-67
2021/07/14 05:23:22;;;;;;;13.45;8.98;;;;;;;26.60;60.07;100658.28;1662955;85;21067;-67
2021/07/14 05:25:48;;;;;;;11.97;7.72;;;;;;;26.67;59.29;100657.72;1660541;83;21075;-68
2021/07/14 05:28:15;;;;;;;13.93;8.93;;;;;;;26.69;58.99;100663.70;1663448;85;21376;-68
2021/07/14 05:30:42;;;;;;;12.98;10.70;;;;;;;26.73;58.66;100660.03;1667257;85;21180;-67
2021/07/14 05:33:08;;;;;;;14.78;9.60;;;;;;;26.78;58.31;100662.89;1669573;85;21091;-68
2021/07/14 05:35:35;;;;;;;10.23;8.70;;;;;;;26.83;57.77;100657.64;1659431;83;21098;-69
2021/07/14 05:38:01;;;;;;;11.48;8.63;;;;;;;26.89;57.71;100663.50;1661996;83;21162;-67
2021/07/14 05:40:28;;;;;;;10.88;7.70;;;;;;;26.95;57.15;100663.97;1646846;85;21126;-69
2021/07/14 05:42:54;;;;;;;10.40;7.62;;;;;;;27.00;56.87;100665.97;1639170;85;21211;-69
2021/07/14 05:45:21;;;;;;;10.23;7.87;;;;;;;27.05;56.68;100663.45;1669055;83;21049;-69
2021/07/14 05:47:49;;;;;;;8.68;6.95;;;;;;;27.10;56.48;100666.30;1680362;84;21075;-68
2021/07/14 05:50:15;;;;;;;9.83;7.95;;;;;;;27.16;56.15;100663.20;1668898;85;21525;-68
2021/07/14 05:52:42;;;;;;;10.43;8.70;;;;;;;27.21;56.18;100661.47;1663158;85;20936;-70
2021/07/14 05:55:10;;;;;;;11.12;9.20;;;;;;;27.28;56.61;100657.34;1688187;83;21110;-68
2021/07/14 05:57:40;;;;;;;9.43;7.17;;;;;;;27.34;57.86;100657.00;1681352;84;21441;-69
2021/07/14 06:00:08;;;;;;;9.15;7.97;;;;;;;27.41;58.37;100657.20;1684583;83;20954;-73
2021/07/14 06:02:34;;;;;;;10.90;9.05;;;;;;;27.51;58.33;100655.31;1654945;84;20997;-71
2021/07/14 06:05:01;;;;;;;11.93;9.73;;;;;;;27.61;58.38;100658.82;1675144;84;21126;-70
2021/07/14 06:07:29;;;;;;;11.22;8.28;;;;;;;27.67;58.48;100658.42;1673848;83;21157;-72
2021/07/14 06:09:58;;;;;;;11.38;8.65;;;;;;;27.69;58.21;100658.50;1673357;83;21592;-68
2021/07/14 06:12:25;;;;;;;11.18;8.98;;;;;;;27.74;58.07;100655.09;1671914;83;20908;-70
2021/07/14 06:14:51;;;;;;;10.80;9.33;;;;;;;27.74;57.87;100656.44;1673726;83;21066;-69
2021/07/14 06:17:18;;;;;;;11.18;8.13;;;;;;;27.72;57.78;100655.34;1670603;84;20951;-69
2021/07/14 06:19:45;;;;;;;12.55;8.88;;;;;;;27.72;58.03;100653.99;1679249;84;21114;-68
2021/07/14 06:22:12;;;;;;;11.03;8.78;;;;;;;27.75;57.91;100660.80;1676071;84;21098;-68
2021/07/14 06:24:41;;;;;;;10.35;8.78;;;;;;;27.79;57.78;100661.47;1682362;84;21308;-68
2021/07/14 06:27:08;;;;;;;9.63;8.53;;;;;;;27.87;57.78;100657.59;1675943;84;21111;-68
2021/07/14 06:29:34;;;;;;;9.08;7.92;;;;;;;27.94;57.85;100654.83;1673246;84;21126;-71
2021/07/14 06:32:01;;;;;;;8.48;7.20;;;;;;;27.97;57.36;100659.27;1672983;84;21237;-70
2021/07/14 06:34:27;;;;;;;11.35;8.30;;;;;;;28.02;57.04;100656.38;1668443;84;21654;-68
2021/07/14 06:36:54;;;;;;;11.03;8.63;;;;;;;28.07;57.13;100662.73;1669825;83;21089;-69
2021/07/14 06:39:20;;;;;;;9.48;8.48;;;;;;;28.15;56.93;100661.58;1672624;83;21280;-69
2021/07/14 06:41:46;;;;;;;10.93;7.87;;;;;;;28.22;56.90;100661.48;1679869;83;20947;-68
2021/07/14 06:44:13;;;;;;;10.85;8.95;;;;;;;28.28;56.70;100653.79;1673549;83;22177;-69
2021/07/14 06:46:40;;;;;;;10.28;8.35;;;;;;;28.34;56.97;100659.09;1675028;84;21086;-69
2021/07/14 06:49:07;;;;;;;10.50;8.50;;;;;;;28.43;57.42;100657.36;1671491;83;20943;-69
2021/07/14 06:51:34;;;;;;;9.60;8.60;;;;;;;28.54;57.19;100653.84;1678720;84;20992;-70
2021/07/14 06:54:01;;;;;;;10.72;8.93;;;;;;;28.61;56.30;100650.50;1672337;84;20979;-69
2021/07/14 06:56:28;;;;;;;10.20;7.92;;;;;;;28.64;56.07;100650.58;1679151;84;22272;-69
2021/07/14 06:58:54;;;;;;;9.55;8.53;;;;;;;28.69;55.92;100659.62;1680732;83;20993;-70
2021/07/14 07:01:20;;;;;;;10.30;8.60;;;;;;;28.74;55.96;100652.70;1684107;83;21620;-70
2021/07/14 07:03:48;;;;;;;10.08;8.30;;;;;;;28.79;56.20;100654.16;1692220;83;21080;-69
2021/07/14 07:06:16;;;;;;;9.83;7.65;;;;;;;28.84;56.11;100655.62;1666635;83;21069;-72
2021/07/14 07:08:42;;;;;;;9.38;7.60;;;;;;;28.86;55.78;100656.20;1685129;84;21789;-72
2021/07/14 07:11:08;;;;;;;9.48;7.62;;;;;;;28.87;55.72;100654.61;1678629;83;21109;-69
2021/07/14 07:13:35;;;;;;;9.08;7.08;;;;;;;28.95;55.65;100653.95;1653138;84;21518;-71
2021/07/14 07:16:03;;;;;;;8.90;6.90;;;;;;;28.99;55.64;100649.17;1673855;83;21109;-69
2021/07/14 07:18:30;;;;;;;8.80;7.72;;;;;;;29.06;54.91;100649.05;1654414;84;21642;-69
2021/07/14 07:20:57;;;;;;;9.28;7.97;;;;;;;29.15;54.84;100645.42;1654517;84;21114;-69
2021/07/14 07:23:24;;;;;;;10.72;8.23;;;;;;;29.22;54.17;100643.45;1699136;83;21076;-69
2021/07/14 07:25:52;;;;;;;9.00;6.42;;;;;;;29.33;54.04;100649.34;1697873;83;21127;-69
2021/07/14 07:28:21;;;;;;;8.25;6.83;;;;;;;29.40;53.99;100651.91;1706363;83;21611;-68
2021/07/14 07:30:48;;;;;;;9.00;7.28;;;;;;;29.46;53.74;100649.06;1658367;83;21044;-69
2021/07/14 07:33:14;;;;;;;8.18;6.53;;;;;;;29.54;52.68;100655.14;1690490;83;21097;-68
2021/07/14 07:35:42;;;;;;;8.05;6.25;;;;;;;29.58;52.05;100653.07;1649201;84;21072;-67
2021/07/14 07:38:09;;;;;;;6.92;5.78;;;;;;;29.62;52.42;100646.11;1701664;83;22149;-67
2021/07/14 07:40:36;;;;;;;8.25;6.17;;;;;;;29.67;51.71;100640.48;1676755;84;21576;-67
2021/07/14 07:43:03;;;;;;;6.75;6.05;;;;;;;29.72;51.67;100641.92;1701260;83;22531;-68
2021/07/14 07:45:30;;;;;;;7.85;6.70;;;;;;;29.77;50.55;100636.63;1699291;83;21149;-67
2021/07/14 07:47:57;;;;;;;9.13;6.92;;;;;;;29.75;49.99;100635.48;1698263;82;21076;-68
2021/07/14 07:50:23;;;;;;;6.80;5.85;;;;;;;29.75;48.97;100634.13;1703010;83;21061;-67
2021/07/14 07:52:49;;;;;;;8.00;6.62;;;;;;;29.77;49.11;100634.75;1701544;82;21077;-67
2021/07/14 07:55:16;;;;;;;7.85;6.25;;;;;;;29.77;48.56;100629.33;1677818;83;21101;-68
2021/07/14 07:57:43;;;;;;;6.60;5.53;;;;;;;29.78;48.73;100630.95;1669459;84;21532;-67
2021/07/14 08:00:14;;;;;;;7.45;6.17;;;;;;;29.79;48.45;100624.48;1676980;84;21602;-67
2021/07/14 08:02:41;;;;;;;8.23;6.50;;;;;;;29.80;48.04;100619.86;1658842;84;21057;-67
2021/07/14 08:05:10;;;;;;;8.55;6.62;;;;;;;29.82;47.75;100623.99;1682875;83;21120;-68
2021/07/14 08:07:38;;;;;;;6.95;5.62;;;;;;;29.87;48.00;100620.52;1685787;83;21125;-68
2021/07/14 08:10:07;;;;;;;7.67;5.95;;;;;;;29.91;46.86;100622.20;1702477;83;21200;-68
2021/07/14 08:12:33;;;;;;;7.58;6.05;;;;;;;29.93;47.36;100621.45;1704479;83;21064;-67
2021/07/14 08:15:03;;;;;;;7.53;5.90;;;;;;;29.95;46.77;100625.55;1675221;84;21120;-69
2021/07/14 08:17:30;;;;;;;7.72;6.15;;;;;;;29.97;46.77;100620.69;1695133;83;21109;-69
2021/07/14 08:19:58;;;;;;;6.80;5.87;;;;;;;29.99;46.59;100616.37;1697746;83;21072;-70
2021/07/14 08:22:26;;;;;;;6.83;5.95;;;;;;;30.01;45.96;100619.69;1679536;84;21098;-70
2021/07/14 08:24:53;;;;;;;7.53;5.92;;;;;;;30.07;45.79;100616.51;1676332;84;21105;-69
2021/07/14 08:27:20;;;;;;;7.08;5.12;;;;;;;30.11;45.93;100622.56;1659728;84;21110;-70
2021/07/14 08:29:47;;;;;;;7.72;5.10;;;;;;;30.16;45.81;100621.80;1685368;83;21351;-69
2021/07/14 08:32:13;;;;;;;9.53;6.35;;;;;;;30.25;45.85;100614.08;1654213;84;21061;-68
2021/07/14 08:34:40;;;;;;;7.10;5.53;;;;;;;30.31;46.47;100622.05;1678615;83;21237;-67
2021/07/14 08:37:08;;;;;;;6.10;4.70;;;;;;;30.37;46.38;100620.26;1702050;83;21109;-70
2021/07/14 08:39:36;;;;;;;6.03;4.85;;;;;;;30.46;46.54;100622.82;1680733;83;21105;-69
2021/07/14 08:42:03;;;;;;;9.23;5.62;;;;;;;30.56;45.67;100625.70;1682864;83;21059;-69
2021/07/14 08:44:30;;;;;;;7.33;5.85;;;;;;;30.65;44.28;100621.17;1672322;83;21057;-70
2021/07/14 08:46:57;;;;;;;7.60;5.37;;;;;;;30.72;44.20;100619.13;1693296;83;21096;-70
2021/07/14 08:49:23;;;;;;;8.35;4.95;;;;;;;30.81;43.64;100620.31;1678113;84;21666;-71
2021/07/14 08:51:52;;;;;;;8.93;4.65;;;;;;;30.88;42.90;100611.46;1653182;84;21510;-71
2021/07/14 08:54:20;;;;;;;7.03;5.08;;;;;;;30.97;42.31;100615.94;1697174;83;21347;-70
2021/07/14 08:56:49;;;;;;;8.25;5.00;;;;;;;31.02;42.00;100611.92;1701065;83;21832;-70
2021/07/14 08:59:17;;;;;;;6.80;5.10;;;;;;;31.05;42.57;100617.38;1695488;83;21112;-68
2021/07/14 09:01:45;;;;;;;5.78;3.80;;;;;;;31.09;42.97;100609.02;1670965;83;21471;-71
2021/07/14 09:04:11;;;;;;;8.15;5.75;;;;;;;31.16;42.86;100615.06;1674116;83;21003;-70
2021/07/14 09:06:38;;;;;;;9.18;5.40;;;;;;;31.24;42.84;100618.69;1674742;83;21018;-69
2021/07/14 09:09:06;;;;;;;6.20;4.50;;;;;;;31.30;43.25;100616.84;1679597;84;21101;-70
2021/07/14 09:11:53;;;;;;;6.62;5.28;;;;;;;31.35;43.22;100606.02;1660440;84;21139;-70
2021/07/14 09:14:36;;;;;;;6.10;4.78;;;;;;;31.41;42.45;100605.55;1674191;83;21140;-70
2021/07/14 09:17:25;;;;;;;6.25;4.75;;;;;;;31.45;42.63;100608.02;1673263;84;21385;-70
2021/07/14 09:20:19;;;;;;;6.45;4.78;;;;;;;31.47;42.50;100602.63;1656559;84;21067;-69
2021/07/14 09:22:46;;;;;;;6.33;4.97;;;;;;;31.49;42.30;100601.83;1675063;83;21090;-69
2021/07/14 09:25:17;;;;;;;6.50;4.87;;;;;;;31.53;41.98;100599.44;1657944;85;21220;-70
2021/07/14 09:27:58;;;;;;;6.83;5.20;;;;;;;31.54;42.26;100597.02;1679741;83;21086;-70
2021/07/14 09:30:27;;;;;;;7.00;5.05;;;;;;;31.59;42.75;100595.70;1678315;84;21220;-70
2021/07/14 09:33:00;;;;;;;7.72;5.70;;;;;;;31.63;42.51;100599.53;1676259;84;21134;-70
2021/07/14 09:35:39;;;;;;;8.45;6.05;;;;;;;31.67;42.23;100595.75;1675125;84;21709;-70
2021/07/14 09:38:09;;;;;;;8.48;6.30;;;;;;;31.68;42.18;100601.48;1675515;84;21880;-70
2021/07/14 09:40:38;;;;;;;7.35;6.12;;;;;;;31.73;42.08;100593.91;1651366;84;21074;-70
2021/07/14 09:43:14;;;;;;;9.03;6.08;;;;;;;31.80;42.06;100598.04;1689869;83;21047;-70
2021/07/14 09:45:54;;;;;;;6.70;5.72;;;;;;;31.84;41.53;100591.02;1685008;84;21066;-69
2021/07/14 09:48:40;;;;;;;6.62;4.97;;;;;;;31.93;42.03;100589.18;1652714;84;21076;-70
2021/07/14 09:51:18;;;;;;;8.20;6.05;;;;;;;31.97;42.01;100588.92;1675918;84;21102;-70
2021/07/14 09:53:51;;;;;;;9.93;6.75;;;;;;;32.00;42.43;100590.58;1675413;84;21091;-67
2021/07/14 09:56:28;;;;;;;7.85;6.53;;;;;;;32.02;42.52;100584.33;1677498;84;21094;-71
2021/07/14 09:59:09;;;;;;;8.28;6.65;;;;;;;32.08;42.25;100585.23;1668834;83;21226;-69
2021/07/14 10:01:45;;;;;;;9.38;6.28;;;;;;;32.11;42.50;100585.23;1654625;84;21087;-70
2021/07/14 10:04:12;;;;;;;;;;;;;;;32.13;41.99;100581.19;1691262;84;21109;-71
2021/07/14 10:06:39;;;;;;;11.93;7.25;;;;;;;32.16;40.95;100584.75;1649191;84;20240;-71
2021/07/14 10:09:06;;;;;;;14.65;7.50;;;;;;;32.19;40.34;100582.03;1715663;82;22240;-71
2021/07/14 10:11:33;;;;;;;9.90;6.78;;;;;;;32.23;40.55;100589.97;1722097;82;21210;-71
2021/07/14 10:14:06;;;;;;;13.43;7.65;;;;;;;32.30;40.53;100589.73;1725840;82;21027;-71
2021/07/14 10:16:36;;;;;;;11.85;7.62;;;;;;;32.34;40.83;100589.48;1718540;82;21094;-71
2021/07/14 10:19:12;;;;;;;9.90;7.67;;;;;;;32.40;40.55;100589.80;1699395;82;21015;-71
2021/07/14 10:21:44;;;;;;;10.93;6.53;;;;;;;32.44;40.26;100584.08;1719917;82;21154;-71
2021/07/14 10:24:13;;;;;;;10.03;7.40;;;;;;;32.52;40.64;100589.03;1710510;82;21071;-72
2021/07/14 10:26:44;;;;;;;11.03;7.72;;;;;;;32.65;40.07;100582.84;1712413;82;21058;-71
2021/07/14 10:29:11;;;;;;;9.05;6.17;;;;;;;32.74;39.68;100582.08;1693016;81;21086;-71
2021/07/14 10:31:38;;;;;;;9.25;6.12;;;;;;;32.83;39.44;100579.66;1725376;82;21086;-72
2021/07/14 10:34:06;;;;;;;9.40;7.05;;;;;;;32.92;39.79;100578.06;1719531;82;21031;-71
2021/07/14 10:36:38;;;;;;;10.45;7.45;;;;;;;33.02;39.53;100575.92;1721793;82;21007;-72
2021/07/14 10:39:13;;;;;;;10.00;6.92;;;;;;;33.08;39.46;100576.19;1712062;82;21557;-71
2021/07/14 10:41:41;;;;;;;11.53;8.10;;;;;;;33.13;39.38;100569.38;1720504;81;21156;-72
2021/07/14 10:44:07;;;;;;;12.60;7.50;;;;;;;33.20;39.93;100575.16;1720913;82;21090;-72
2021/07/14 10:46:36;;;;;;;14.30;7.50;;;;;;;33.24;39.00;100574.36;1713839;82;21003;-72
2021/07/14 10:49:05;;;;;;;12.93;8.35;;;;;;;33.28;39.57;100567.27;1709478;82;21000;-72
2021/07/14 10:51:32;;;;;;;9.35;7.33;;;;;;;33.33;38.45;100570.00;1714359;82;22204;-72
2021/07/14 10:54:09;;;;;;;8.88;7.55;;;;;;;33.38;38.95;100573.84;1727475;82;21143;-72
2021/07/14 10:56:44;;;;;;;11.68;7.70;;;;;;;33.42;38.16;100573.03;1718257;81;21047;-72
2021/07/14 10:59:11;;;;;;;11.50;8.55;;;;;;;33.41;37.58;100574.11;1722200;82;21038;-72
2021/07/14 11:01:45;;;;;;;10.23;7.20;;;;;;;33.43;37.61;100565.11;1711799;81;21095;-72
2021/07/14 11:04:32;;;;;;;12.75;7.12;;;;;;;33.45;36.98;100569.73;1730600;81;21069;-72
2021/07/14 11:07:08;;;;;;;9.08;6.62;;;;;;;33.50;37.14;100572.47;1731731;81;21095;-71
2021/07/14 11:09:41;;;;;;;11.85;6.65;;;;;;;33.58;37.20;100566.22;1727291;81;21022;-71
2021/07/14 11:12:12;;;;;;;7.35;6.28;;;;;;;33.67;37.53;100563.20;1747220;81;21047;-71
2021/07/14 11:14:48;;;;;;;8.18;6.40;;;;;;;33.76;35.94;100560.25;1736810;81;21082;-71
2021/07/14 11:17:16;;;;;;;6.90;6.15;;;;;;;33.82;35.74;100560.50;1747775;81;21085;-71
2021/07/14 11:19:49;;;;;;;8.93;6.33;;;;;;;33.89;35.52;100560.22;1744447;81;21102;-71
2021/07/14 11:22:36;;;;;;;9.03;5.90;;;;;;;33.90;34.89;100561.06;1737611;81;21031;-71
2021/07/14 11:25:07;;;;;;;9.33;6.30;;;;;;;33.86;34.46;100558.06;1733719;81;21092;-71
2021/07/14 11:27:41;;;;;;;8.88;6.75;;;;;;;33.80;34.28;100550.41;1734467;81;21081;-71
2021/07/14 11:30:13;;;;;;;8.68;6.37;;;;;;;33.79;34.80;100555.61;1738681;81;21113;-71
2021/07/14 11:32:48;;;;;;;8.13;5.67;;;;;;;33.78;34.84;100551.79;1740022;81;21166;-71
2021/07/14 11:35:17;;;;;;;;;;;;;;;33.77;34.91;100554.23;1740818;81;22190;-72
2021/07/14 11:37:47;;;;;;;9.25;6.12;;;;;;;33.78;35.56;100555.88;1739629;81;20172;-71
2021/07/14 11:40:25;;;;;;;11.18;6.72;;;;;;;33.75;35.97;100549.05;1731749;80;21075;-72